Time;durP1;ratioP1;P1;durP2;ratioP2;P2;SDS_P1;SDS_P2;PMS_P1;PMS_P2;Temp;Humidity;BMP_temperature;BMP_pressure;BME280_temperature;BME280_humidity;BME280_pressure;Samples;Min_cycle;Max_cycle;Signal;HPM_P1;HPM_P2
2022/08/30 00:03:11;;;;;;;;;;;18.50;99.90;;;;;;5030818;28;19919;-69
2022/08/30 00:05:38;;;;;;;;;;;18.50;99.90;;;;;;5030563;28;20005;-69
2022/08/30 00:08:05;;;;;;;;;;;18.80;99.90;;;;;;5030663;28;19932;-68
2022/08/30 00:10:32;;;;;;;;;;;19.00;99.90;;;;;;5030224;28;20032;-69
2022/08/30 00:12:59;;;;;;;;;;;19.20;99.90;;;;;;5030452;28;19909;-68
2022/08/30 00:15:27;;;;;;;;;;;19.30;99.90;;;;;;5030413;28;19909;-68
2022/08/30 00:17:54;;;;;;;;;;;19.40;99.90;;;;;;5030376;28;19909;-69
2022/08/30 00:20:23;;;;;;;;;;;19.40;99.90;;;;;;5030569;28;20295;-68
2022/08/30 00:22:50;;;;;;;;;;;19.70;99.90;;;;;;5030522;28;19987;-69
2022/08/30 00:25:18;;;;;;;;;;;19.70;99.90;;;;;;5030286;28;19909;-69
2022/08/30 00:27:44;;;;;;;;;;;19.70;99.90;;;;;;5030100;28;19987;-69
2022/08/30 00:30:12;;;;;;;;;;;19.70;99.90;;;;;;5030437;28;19967;-68
2022/08/30 00:32:39;;;;;;;;;;;19.80;99.90;;;;;;5030271;28;20271;-68
2022/08/30 00:35:06;;;;;;;;;;;19.90;99.90;;;;;;5030461;28;20000;-68
2022/08/30 00:37:33;;;;;;;;;;;19.90;99.90;;;;;;5030222;28;19981;-69
2022/08/30 00:40:00;;;;;;;;;;;19.90;99.90;;;;;;5030099;28;20046;-69
2022/08/30 00:42:27;;;;;;;;;;;19.90;99.90;;;;;;5030148;28;19918;-69
2022/08/30 00:44:53;;;;;;;;;;;20.10;99.90;;;;;;5030353;28;19917;-68
2022/08/30 00:47:20;;;;;;;;;;;20.20;99.90;;;;;;5030025;28;20030;-68
2022/08/30 00:49:48;;;;;;;;;;;20.10;99.90;;;;;;5029873;28;20299;-68
2022/08/30 00:52:17;;;;;;;;;;;20.20;99.90;;;;;;5030149;28;19909;-68
2022/08/30 00:54:45;;;;;;;;;;;20.30;99.90;;;;;;5029957;28;19962;-68
2022/08/30 00:57:13;;;;;;;;;;;20.30;99.90;;;;;;5022911;28;20001;-68
2022/08/30 00:59:41;;;;;;;;;;;20.40;99.90;;;;;;5016234;28;19909;-69
2022/08/30 01:02:08;;;;;;;;;;;20.50;99.90;;;;;;5009683;28;20004;-68
2022/08/30 01:04:36;;;;;;;;;;;20.60;99.90;;;;;;5015452;28;20000;-68
2022/08/30 01:07:03;;;;;;;;;;;20.80;99.90;;;;;;5061858;27;19982;-69
2022/08/30 01:09:30;;;;;;;;;;;20.70;99.90;;;;;;5029671;28;19921;-69
2022/08/30 01:11:57;;;;;;;;;;;21.00;99.90;;;;;;5032926;28;19921;-69
2022/08/30 01:14:23;;;;;;;;;;;21.50;99.90;;;;;;5033010;28;19913;-69
2022/08/30 01:16:50;;;;;;;;;;;21.80;99.90;;;;;;5033228;28;19909;-70
2022/08/30 01:19:17;;;;;;;;;;;21.90;99.90;;;;;;5065132;28;20245;-69
2022/08/30 01:21:48;;;;;;;;;;;22.20;99.90;;;;;;5032815;28;20011;-68
2022/08/30 01:24:15;;;;;;;;;;;22.30;99.90;;;;;;5032255;28;20264;-69
2022/08/30 01:26:42;;;;;;;;;;;22.40;99.90;;;;;;5033206;28;19909;-69
2022/08/30 01:29:11;;;;;;;;;;;22.50;99.90;;;;;;5033216;28;19909;-69
2022/08/30 01:31:37;;;;;;;;;;;22.50;99.90;;;;;;5032950;28;19916;-69
2022/08/30 01:34:06;;;;;;;;;;;22.40;99.90;;;;;;5032882;28;19932;-67
2022/08/30 01:36:33;;;;;;;;;;;22.10;99.90;;;;;;5032719;28;20314;-69
2022/08/30 01:39:01;;;;;;;;;;;22.00;99.90;;;;;;5032654;28;19917;-68
2022/08/30 01:41:29;;;;;;;;;;;21.70;99.90;;;;;;5032787;28;20383;-70
2022/08/30 01:43:57;;;;;;;;;;;21.60;99.90;;;;;;5032682;28;19914;-68
2022/08/30 01:46:25;;;;;;;;;;;21.50;99.90;;;;;;5032858;28;20321;-68
2022/08/30 01:48:53;;;;;;;;;;;21.50;99.90;;;;;;5032753;28;19909;-69
2022/08/30 01:51:20;;;;;;;;;;;21.60;99.90;;;;;;5032799;28;19909;-71
2022/08/30 01:53:47;;;;;;;;;;;21.50;99.90;;;;;;5032326;28;19909;-69
2022/08/30 01:56:14;;;;;;;;;;;21.50;99.90;;;;;;5032695;28;20355;-68
2022/08/30 01:58:41;;;;;;;;;;;21.50;99.90;;;;;;5032802;28;20271;-69
2022/08/30 02:01:11;;;;;;;;;;;21.50;99.90;;;;;;5025271;28;19974;-69
2022/08/30 02:03:38;;;;;;;;;;;21.50;99.90;;;;;;5017012;28;19974;-70
2022/08/30 02:06:06;;;;;;;;;;;21.50;99.90;;;;;;5012087;28;19917;-69
2022/08/30 02:08:33;;;;;;;;;;;21.50;99.90;;;;;;5011745;28;20283;-69
2022/08/30 02:10:59;;;;;;;;;;;21.50;99.90;;;;;;5012205;28;19952;-69
2022/08/30 02:13:27;;;;;;;;;;;21.50;99.90;;;;;;5012037;28;20287;-69
2022/08/30 02:15:54;;;;;;;;;;;21.50;99.90;;;;;;5027701;28;20004;-69
2022/08/30 02:18:22;;;;;;;;;;;21.40;99.90;;;;;;5032366;28;19932;-69
2022/08/30 02:20:48;;;;;;;;;;;21.40;99.90;;;;;;5032327;28;19952;-69
2022/08/30 02:23:15;;;;;;;;;;;21.40;99.90;;;;;;5031354;28;20008;-69
2022/08/30 02:25:42;;;;;;;;;;;21.50;99.90;;;;;;5031946;28;20000;-70
2022/08/30 02:28:10;;;;;;;;;;;21.40;99.90;;;;;;5032183;28;20001;-69
2022/08/30 02:30:36;;;;;;;;;;;21.50;99.90;;;;;;5032206;28;19909;-69
2022/08/30 02:33:03;;;;;;;;;;;21.50;99.90;;;;;;5031831;28;19917;-69
2022/08/30 02:35:30;;;;;;;;;;;21.50;99.90;;;;;;5032010;28;19909;-69
2022/08/30 02:37:56;;;;;;;;;;;21.50;99.90;;;;;;5031645;28;20407;-69
2022/08/30 02:40:23;;;;;;;;;;;21.60;99.90;;;;;;5031753;28;20390;-70
2022/08/30 02:42:50;;;;;;;;;;;21.60;99.90;;;;;;5031743;28;19917;-70
2022/08/30 02:45:17;;;;;;;;;;;21.60;99.90;;;;;;5031673;28;19910;-70
2022/08/30 02:47:43;;;;;;;;;;;21.60;99.90;;;;;;5031389;28;19909;-69
2022/08/30 02:50:10;;;;;;;;;;;21.60;99.90;;;;;;5031651;28;19910;-70
2022/08/30 02:52:37;;;;;;;;;;;21.60;99.90;;;;;;5031634;28;19966;-69
2022/08/30 02:55:05;;;;;;;;;;;21.70;99.90;;;;;;5031801;28;19909;-69
2022/08/30 02:57:32;;;;;;;;;;;21.60;99.90;;;;;;5031664;28;19954;-69
2022/08/30 02:59:59;;;;;;;;;;;21.50;99.90;;;;;;5031364;28;19917;-70
2022/08/30 03:02:25;;;;;;;;;;;21.50;99.90;;;;;;5031500;28;20008;-69
2022/08/30 03:04:52;;;;;;;;;;;21.50;99.90;;;;;;5031596;28;19909;-69
2022/08/30 03:07:20;;;;;;;;;;;21.60;99.90;;;;;;5031610;28;20351;-69
2022/08/30 03:09:47;;;;;;;;;;;21.60;99.90;;;;;;5031112;28;19927;-69
2022/08/30 03:12:13;;;;;;;;;;;21.60;99.90;;;;;;5031520;28;19913;-69
2022/08/30 03:14:40;;;;;;;;;;;21.50;99.90;;;;;;5031476;28;19959;-69
2022/08/30 03:17:08;;;;;;;;;;;21.40;99.90;;;;;;5031598;28;19910;-69
2022/08/30 03:19:35;;;;;;;;;;;21.60;99.90;;;;;;5031250;28;19913;-69
2022/08/30 03:22:03;;;;;;;;;;;21.70;99.90;;;;;;5031169;28;19970;-69
2022/08/30 03:24:30;;;;;;;;;;;21.60;99.90;;;;;;5031288;28;19971;-69
2022/08/30 03:26:57;;;;;;;;;;;21.60;99.90;;;;;;5031290;28;19992;-70
2022/08/30 03:29:24;;;;;;;;;;;21.50;99.90;;;;;;5031175;28;20009;-70
2022/08/30 03:31:51;;;;;;;;;;;21.40;99.90;;;;;;5031052;28;19909;-70
2022/08/30 03:34:18;;;;;;;;;;;21.50;99.90;;;;;;5031182;28;20023;-70
2022/08/30 03:36:47;;;;;;;;;;;21.50;99.90;;;;;;5031085;28;20018;-70
2022/08/30 03:39:13;;;;;;;;;;;21.70;99.90;;;;;;5030935;28;19932;-70
2022/08/30 03:41:40;;;;;;;;;;;21.60;99.90;;;;;;5030595;28;19920;-69
2022/08/30 03:44:07;;;;;;;;;;;21.50;99.90;;;;;;5031044;28;20303;-68
2022/08/30 03:46:33;;;;;;;;;;;21.60;99.90;;;;;;5031056;28;19915;-69
2022/08/30 03:49:00;;;;;;;;;;;21.50;99.90;;;;;;5030931;28;19913;-69
2022/08/30 03:51:27;;;;;;;;;;;21.60;99.90;;;;;;5030974;28;19916;-69
2022/08/30 03:53:54;;;;;;;;;;;21.60;99.90;;;;;;5030464;28;20471;-70
2022/08/30 03:56:20;;;;;;;;;;;21.50;99.90;;;;;;5030824;28;19916;-69
2022/08/30 03:58:47;;;;;;;;;;;21.50;99.90;;;;;;5030804;28;19948;-70
2022/08/30 04:01:14;;;;;;;;;;;21.50;99.90;;;;;;5030509;28;20020;-69
2022/08/30 04:03:41;;;;;;;;;;;21.50;99.90;;;;;;5030463;28;19916;-70
2022/08/30 04:06:07;;;;;;;;;;;21.60;99.90;;;;;;5030662;28;20339;-71
2022/08/30 04:08:34;;;;;;;;;;;21.60;99.90;;;;;;5030219;28;19966;-68
2022/08/30 04:11:01;;;;;;;;;;;21.60;99.90;;;;;;5030520;28;20701;-69
2022/08/30 04:13:32;;;;;;;;;;;21.60;99.90;;;;;;5029775;28;20212;-69
2022/08/30 04:15:59;;;;;;;;;;;21.60;99.90;;;;;;5030208;28;19917;-70
2022/08/30 04:18:26;;;;;;;;;;;21.60;99.90;;;;;;5030547;28;19910;-68
2022/08/30 04:20:52;;;;;;;;;;;21.50;99.90;;;;;;5030498;28;20390;-69
2022/08/30 04:23:19;;;;;;;;;;;21.50;99.90;;;;;;5030289;28;19927;-69
2022/08/30 04:25:46;;;;;;;;;;;21.60;99.90;;;;;;5030115;28;20005;-69
2022/08/30 04:28:13;;;;;;;;;;;21.60;99.90;;;;;;5030339;28;19913;-69
2022/08/30 04:30:41;;;;;;;;;;;21.40;99.90;;;;;;5030385;28;19909;-70
2022/08/30 04:33:07;;;;;;;;;;;21.40;99.90;;;;;;5030330;28;19913;-69
2022/08/30 04:35:34;;;;;;;;;;;21.50;99.90;;;;;;5030442;28;20414;-70
2022/08/30 04:38:01;;;;;;;;;;;21.40;99.90;;;;;;5030182;28;19913;-70
2022/08/30 04:40:28;;;;;;;;;;;21.50;99.90;;;;;;5030375;28;19986;-70
2022/08/30 04:42:55;;;;;;;;;;;21.50;99.90;;;;;;5030167;28;19956;-69
2022/08/30 04:45:22;;;;;;;;;;;21.50;99.90;;;;;;5031243;28;19993;-68
2022/08/30 04:47:49;;;;;;;;;;;21.40;99.90;;;;;;5033435;28;20276;-69
2022/08/30 04:50:17;;;;;;;;;;;21.40;99.90;;;;;;5033638;28;19965;-68
2022/08/30 04:52:43;;;;;;;;;;;21.40;99.90;;;;;;5033507;28;19919;-68
2022/08/30 04:55:11;;;;;;;;;;;21.40;99.90;;;;;;5033515;28;19962;-69
2022/08/30 04:57:39;;;;;;;;;;;21.40;99.90;;;;;;5033398;28;19910;-68
2022/08/30 05:00:07;;;;;;;;;;;21.40;99.90;;;;;;5033752;28;19970;-68
2022/08/30 05:02:34;;;;;;;;;;;21.30;99.90;;;;;;5033391;28;19921;-68
2022/08/30 05:07:46;;;;;;;;;;;21.30;99.90;;;;;;5033358;28;19924;-68
2022/08/30 05:10:13;;;;;;;;;;;21.30;99.90;;;;;;5033128;28;20321;-69
2022/08/30 05:12:40;;;;;;;;;;;21.40;99.90;;;;;;5032979;28;19912;-69
2022/08/30 05:15:07;;;;;;;;;;;21.30;99.90;;;;;;5033307;28;19915;-68
2022/08/30 05:17:34;;;;;;;;;;;21.30;99.90;;;;;;5033173;28;20398;-69
2022/08/30 05:20:01;;;;;;;;;;;21.30;99.90;;;;;;5033217;28;19941;-69
2022/08/30 05:22:28;;;;;;;;;;;21.30;99.90;;;;;;5033085;28;19917;-69
2022/08/30 05:24:54;;;;;;;;;;;21.30;99.90;;;;;;5032916;28;19941;-69
2022/08/30 05:27:24;;;;;;;;;;;21.20;99.90;;;;;;5032982;28;19916;-69
2022/08/30 05:29:51;;;;;;;;;;;21.20;99.90;;;;;;5032803;28;19916;-70
2022/08/30 05:32:17;;;;;;;;;;;21.20;99.90;;;;;;5032905;28;19909;-69
2022/08/30 05:34:44;;;;;;;;;;;21.30;99.90;;;;;;5032648;28;20414;-69
2022/08/30 05:37:11;;;;;;;;;;;21.30;99.90;;;;;;5032452;28;19909;-69
2022/08/30 05:39:37;;;;;;;;;;;21.20;99.90;;;;;;5032434;28;19916;-69
2022/08/30 05:42:04;;;;;;;;;;;21.20;99.90;;;;;;5032817;28;19960;-69
2022/08/30 05:44:31;;;;;;;;;;;21.20;99.90;;;;;;5031471;28;19913;-70
2022/08/30 05:46:58;;;;;;;;;;;21.20;99.90;;;;;;5029235;28;19953;-69
2022/08/30 05:49:24;;;;;;;;;;;21.10;99.90;;;;;;5032816;28;19909;-69
2022/08/30 05:51:51;;;;;;;;;;;21.10;99.90;;;;;;5032134;28;19916;-69
2022/08/30 05:54:18;;;;;;;;;;;21.00;99.90;;;;;;5032368;28;20068;-69
2022/08/30 05:56:45;;;;;;;;;;;21.00;99.90;;;;;;5031211;28;20327;-69
2022/08/30 05:59:13;;;;;;;;;;;21.00;99.90;;;;;;5032386;28;19909;-68
2022/08/30 06:01:44;;;;;;;;;;;20.90;99.90;;;;;;5032315;28;19917;-70
2022/08/30 06:04:11;;;;;;;;;;;20.90;99.90;;;;;;5032469;28;19948;-69
2022/08/30 06:06:40;;;;;;;;;;;20.80;99.90;;;;;;5032383;28;19913;-69
2022/08/30 06:09:07;;;;;;;;;;;20.80;99.90;;;;;;5032299;28;19921;-68
2022/08/30 06:11:34;;;;;;;;;;;20.80;99.90;;;;;;5032212;28;20284;-68
2022/08/30 06:14:02;;;;;;;;;;;20.70;99.90;;;;;;5032252;28;19978;-67
2022/08/30 06:16:28;;;;;;;;;;;20.70;99.90;;;;;;5032213;28;19909;-69
2022/08/30 06:18:56;;;;;;;;;;;20.60;99.90;;;;;;5032106;28;20504;-69
2022/08/30 06:21:24;;;;;;;;;;;20.60;99.90;;;;;;5031814;28;19925;-68
2022/08/30 06:23:51;;;;;;;;;;;20.60;99.90;;;;;;5032024;28;19955;-69
2022/08/30 06:26:18;;;;;;;;;;;20.50;99.90;;;;;;5032003;28;20275;-68
2022/08/30 06:28:45;;;;;;;;;;;20.50;99.90;;;;;;5032229;28;19916;-69
2022/08/30 06:31:13;;;;;;;;;;;20.40;99.90;;;;;;5031978;28;20275;-68
2022/08/30 06:33:40;;;;;;;;;;;20.40;99.90;;;;;;5032031;28;19909;-68
2022/08/30 06:36:08;;;;;;;;;;;20.40;99.90;;;;;;5031875;28;20004;-68
2022/08/30 06:38:35;;;;;;;;;;;20.40;99.90;;;;;;5031845;28;20013;-69
2022/08/30 06:41:05;;;;;;;;;;;20.30;99.90;;;;;;5031826;28;19917;-69
2022/08/30 06:43:33;;;;;;;;;;;20.30;99.90;;;;;;5031837;28;19939;-69
2022/08/30 06:46:03;;;;;;;;;;;20.20;99.90;;;;;;5031853;28;20359;-68
2022/08/30 06:48:30;;;;;;;;;;;20.20;99.90;;;;;;5031708;28;19970;-68
2022/08/30 06:50:58;;;;;;;;;;;20.10;99.90;;;;;;5031700;28;19909;-69
2022/08/30 06:53:25;;;;;;;;;;;20.10;99.90;;;;;;5031437;28;20347;-68
2022/08/30 06:55:56;;;;;;;;;;;20.00;99.90;;;;;;5031423;28;19962;-68
2022/08/30 06:58:23;;;;;;;;;;;20.10;99.90;;;;;;5031326;28;19961;-68
2022/08/30 07:00:50;;;;;;;;;;;20.10;99.90;;;;;;5031129;28;19910;-68
2022/08/30 07:03:16;;;;;;;;;;;20.00;99.90;;;;;;5031437;28;20365;-68
2022/08/30 07:05:43;;;;;;;;;;;20.00;99.90;;;;;;5031440;28;19913;-69
2022/08/30 07:08:10;;;;;;;;;;;20.00;99.90;;;;;;5030954;28;19913;-68
2022/08/30 07:10:40;;;;;;;;;;;19.90;99.90;;;;;;5031403;28;19967;-68
2022/08/30 07:13:08;;;;;;;;;;;19.90;99.90;;;;;;5031213;28;19934;-68
2022/08/30 07:15:40;;;;;;;;;;;19.80;99.90;;;;;;5031065;28;19909;-68
2022/08/30 07:20:51;;;;;;;;;;;19.80;99.90;;;;;;5031359;28;19916;-69
2022/08/30 07:23:18;;;;;;;;;;;19.80;99.90;;;;;;5031117;28;20547;-69
2022/08/30 07:25:45;;;;;;;;;;;19.70;99.90;;;;;;5031192;28;19932;-68
2022/08/30 07:28:11;;;;;;;;;;;19.70;99.90;;;;;;5031144;28;19909;-68
2022/08/30 07:30:40;;;;;;;;;;;19.70;99.90;;;;;;5031031;28;19909;-69
2022/08/30 07:33:07;;;;;;;;;;;19.60;99.90;;;;;;5031120;28;19971;-69
2022/08/30 07:35:34;;;;;;;;;;;19.50;99.90;;;;;;5030888;28;20347;-70
2022/08/30 07:38:01;;;;;;;;;;;19.40;99.90;;;;;;5031001;28;19992;-70
2022/08/30 07:40:27;;;;;;;;;;;19.40;99.90;;;;;;5031039;28;19955;-69
2022/08/30 07:42:54;;;;;;;;;;;19.40;99.90;;;;;;5030922;28;19917;-69
2022/08/30 07:45:21;;;;;;;;;;;19.30;99.90;;;;;;5030910;28;20363;-69
2022/08/30 07:47:47;;;;;;;;;;;19.30;99.90;;;;;;5030662;28;19970;-69
2022/08/30 07:50:14;;;;;;;;;;;19.40;99.90;;;;;;5030773;28;19966;-69
2022/08/30 07:52:41;;;;;;;;;;;19.30;99.90;;;;;;5030674;28;19909;-69
2022/08/30 07:55:08;;;;;;;;;;;19.20;99.90;;;;;;5030792;28;20382;-69
2022/08/30 07:57:35;;;;;;;;;;;19.10;99.90;;;;;;5030844;28;20423;-69
2022/08/30 08:00:02;;;;;;;;;;;18.90;99.90;;;;;;5030668;28;20444;-69
2022/08/30 08:02:29;;;;;;;;;;;18.90;99.90;;;;;;5030796;28;20004;-69
2022/08/30 08:04:55;;;;;;;;;;;18.80;99.90;;;;;;5030605;28;19909;-69
2022/08/30 08:07:22;;;;;;;;;;;18.70;99.90;;;;;;5030619;28;20023;-69
2022/08/30 08:09:49;;;;;;;;;;;18.70;99.90;;;;;;5030111;28;20012;-68
2022/08/30 08:12:15;;;;;;;;;;;18.70;99.90;;;;;;5030572;28;20351;-68
2022/08/30 08:14:42;;;;;;;;;;;18.60;99.90;;;;;;5030433;28;20352;-69
2022/08/30 08:17:09;;;;;;;;;;;18.70;99.90;;;;;;5030383;28;19913;-69
2022/08/30 08:19:35;;;;;;;;;;;18.70;99.90;;;;;;5029482;28;19957;-69
2022/08/30 08:22:02;;;;;;;;;;;18.60;99.90;;;;;;5029900;28;19963;-69
2022/08/30 08:24:29;;;;;;;;;;;18.60;99.90;;;;;;5030402;28;20348;-68
2022/08/30 08:26:56;;;;;;;;;;;18.60;99.90;;;;;;5030622;28;19909;-68
2022/08/30 08:29:26;;;;;;;;;;;18.60;99.90;;;;;;5030170;28;19909;-69
2022/08/30 08:31:54;;;;;;;;;;;18.50;99.90;;;;;;5028875;28;19917;-69
2022/08/30 08:34:22;;;;;;;;;;;18.50;99.90;;;;;;5030272;28;19909;-69
2022/08/30 08:36:49;;;;;;;;;;;18.50;99.90;;;;;;5030097;28;19910;-69
2022/08/30 08:39:16;;;;;;;;;;;18.40;99.90;;;;;;5030107;28;19962;-70
2022/08/30 08:41:46;;;;;;;;;;;18.40;98.90;;;;;;5029521;28;19923;-69
2022/08/30 08:44:18;;;;;;;;;;;18.40;99.00;;;;;;5030085;28;20412;-69
2022/08/30 08:46:58;;;;;;;;;;;18.60;95.90;;;;;;5029822;28;19914;-69
2022/08/30 08:49:25;;;;;;;;;;;18.60;95.10;;;;;;5030258;28;19956;-68
2022/08/30 08:54:38;;;;;;;;;;;18.70;95.60;;;;;;5030056;28;19967;-69
2022/08/30 08:57:05;;;;;;;;;;;18.80;93.50;;;;;;5030066;28;19910;-69
2022/08/30 08:59:32;;;;;;;;;;;18.70;94.30;;;;;;5029987;28;19909;-69
2022/08/30 09:02:01;;;;;;;;;;;18.70;94.50;;;;;;5029561;28;19917;-69
2022/08/30 09:04:37;;;;;;;;;;;18.60;95.10;;;;;;5029908;28;19952;-69
2022/08/30 09:07:23;;;;;;;;;;;18.50;94.80;;;;;;5029679;28;19913;-69
2022/08/30 09:09:50;;;;;;;;;;;18.50;93.80;;;;;;5028899;28;19956;-69
2022/08/30 09:12:17;;;;;;;;;;;18.50;93.90;;;;;;5029787;28;19909;-69
2022/08/30 09:14:51;;;;;;;;;;;18.50;94.90;;;;;;5029664;28;19914;-69
2022/08/30 09:17:18;;;;;;;;;;;18.40;94.30;;;;;;5029649;28;19982;-67
2022/08/30 09:19:56;;;;;;;;;;;18.40;93.90;;;;;;5029336;28;19952;-68
2022/08/30 09:22:35;;;;;;;;;;;18.30;94.20;;;;;;5029285;28;19986;-68
2022/08/30 09:25:16;;;;;;;;;;;18.30;94.30;;;;;;5029582;28;19909;-68
2022/08/30 09:27:44;;;;;;;;;;;18.20;94.80;;;;;;5029395;28;19964;-69
2022/08/30 09:30:20;;;;;;;;;;;18.20;95.00;;;;;;5029885;28;19916;-69
2022/08/30 09:32:56;;;;;;;;;;;18.00;95.30;;;;;;5032357;28;19932;-67
2022/08/30 09:35:25;;;;;;;;;;;18.00;95.60;;;;;;5032582;28;19913;-67
2022/08/30 09:37:56;;;;;;;;;;;17.90;95.30;;;;;;5032492;28;19909;-69
2022/08/30 09:40:34;;;;;;;;;;;17.90;95.30;;;;;;5032704;28;19917;-68
2022/08/30 09:43:09;;;;;;;;;;;17.90;95.50;;;;;;5032585;28;19917;-69
2022/08/30 09:45:38;;;;;;;;;;;17.90;94.90;;;;;;5032392;28;20028;-68
2022/08/30 09:48:22;;;;;;;;;;;17.90;96.30;;;;;;5032250;28;19909;-68
2022/08/30 09:50:53;;;;;;;;;;;17.80;95.30;;;;;;5032384;28;19909;-69
2022/08/30 09:53:24;;;;;;;;;;;17.80;96.10;;;;;;5032774;28;20295;-68
2022/08/30 09:56:08;;;;;;;;;;;17.80;96.70;;;;;;5032358;28;19945;-68
2022/08/30 09:58:53;;;;;;;;;;;17.70;96.40;;;;;;5032106;28;19953;-68
2022/08/30 10:01:51;;;;;;;;;;;17.70;96.20;;;;;;5032492;28;20012;-68
2022/08/30 10:04:21;;;;;;;;;;;17.70;96.10;;;;;;4999123;28;20416;-68
2022/08/30 10:06:51;;;;;;;;;;;17.70;96.30;;;;;;5032269;28;19962;-68
2022/08/30 10:09:21;;;;;;;;;;;17.80;95.90;;;;;;5032188;28;19921;-68
2022/08/30 10:11:50;;;;;;;;;;;17.70;96.10;;;;;;5032479;28;20004;-68
2022/08/30 10:14:17;;;;;;;;;;;17.70;96.60;;;;;;5032467;28;19921;-68
2022/08/30 10:17:02;;;;;;;;;;;17.70;96.10;;;;;;5032394;28;20373;-69
2022/08/30 10:19:41;;;;;;;;;;;17.70;95.80;;;;;;5032368;28;19954;-68
2022/08/30 10:22:26;;;;;;;;;;;17.60;96.50;;;;;;5032169;28;20354;-69
2022/08/30 10:25:02;;;;;;;;;;;17.60;96.10;;;;;;5032317;28;19916;-69
2022/08/30 10:27:31;;;;;;;;;;;17.60;96.90;;;;;;5032153;28;20367;-68
2022/08/30 10:30:06;;;;;;;;;;;17.60;96.70;;;;;;5032584;28;19909;-68
2022/08/30 10:32:33;;;;;;;;;;;17.50;97.40;;;;;;5032279;28;20297;-68
2022/08/30 10:35:00;;;;;;;;;;;17.50;96.60;;;;;;5032014;28;19910;-69
2022/08/30 10:37:29;;;;;;;;;;;17.50;96.80;;;;;;5063858;27;20363;-69
2022/08/30 10:41:11;;;;;;;;;;;17.40;96.90;;;;;;5063786;28;20016;-69
2022/08/30 10:42:50;;;;;;;;;;;17.40;97.60;;;;;;5031372;28;19973;-68
2022/08/30 10:45:17;;;;;;;;;;;17.40;97.30;;;;;;5032094;28;19916;-68
2022/08/30 10:47:50;;;;;;;;;;;17.30;98.40;;;;;;5030662;28;19916;-68
2022/08/30 10:50:27;;;;;;;;;;;17.20;97.50;;;;;;5063699;27;19909;-68
2022/08/30 10:52:57;;;;;;;;;;;17.20;98.10;;;;;;5031823;28;19913;-69
2022/08/30 10:55:26;;;;;;;;;;;17.10;98.00;;;;;;5063751;27;19913;-68
2022/08/30 10:57:53;;;;;;;;;;;17.20;98.80;;;;;;5031652;28;19909;-68
2022/08/30 11:00:26;;;;;;;;;;;17.10;98.30;;;;;;5030582;28;19909;-68
2022/08/30 11:03:01;;;;;;;;;;;17.10;98.20;;;;;;5031637;28;19932;-68
2022/08/30 11:05:28;;;;;;;;;;;17.00;98.60;;;;;;5031469;28;19909;-68
2022/08/30 11:08:10;;;;;;;;;;;17.00;98.80;;;;;;5031449;28;19913;-68
2022/08/30 11:10:40;;;;;;;;;;;16.90;98.50;;;;;;5031411;28;20299;-68
2022/08/30 11:13:20;;;;;;;;;;;16.90;98.70;;;;;;5018277;28;20268;-66
2022/08/30 11:15:59;;;;;;;;;;;16.80;98.60;;;;;;5011553;28;19909;-69
2022/08/30 11:18:27;;;;;;;;;;;16.90;98.90;;;;;;5011808;28;19954;-68
2022/08/30 11:21:14;;;;;;;;;;;16.80;99.00;;;;;;5011368;28;19916;-68
2022/08/30 11:23:40;;;;;;;;;;;16.80;99.00;;;;;;5011315;28;19914;-67
2022/08/30 11:26:08;;;;;;;;;;;16.80;98.80;;;;;;5011396;28;19913;-68
2022/08/30 11:28:35;;;;;;;;;;;16.70;98.90;;;;;;5011605;28;20260;-67
2022/08/30 11:31:28;;;;;;;;;;;16.70;98.80;;;;;;5010925;28;19969;-67
2022/08/30 11:33:58;;;;;;;;;;;16.70;99.40;;;;;;5011464;28;19933;-67
2022/08/30 11:36:31;;;;;;;;;;;16.70;99.30;;;;;;5011413;28;20000;-67
2022/08/30 11:39:00;;;;;;;;;;;16.70;99.70;;;;;;5011275;28;20380;-68
2022/08/30 11:41:29;;;;;;;;;;;16.60;99.40;;;;;;5011310;28;19914;-68
2022/08/30 11:44:11;;;;;;;;;;;16.60;99.70;;;;;;5010569;28;19910;-68
2022/08/30 11:46:39;;;;;;;;;;;16.50;99.90;;;;;;5011272;28;20372;-68
2022/08/30 11:49:15;;;;;;;;;;;16.50;99.90;;;;;;5011123;28;19909;-68
2022/08/30 11:52:03;;;;;;;;;;;16.50;99.90;;;;;;5010614;28;19961;-68
2022/08/30 11:54:32;;;;;;;;;;;16.50;99.90;;;;;;5010154;28;19992;-68
2022/08/30 11:56:59;;;;;;;;;;;16.40;99.90;;;;;;5010868;28;19962;-68
2022/08/30 11:59:43;;;;;;;;;;;16.40;99.90;;;;;;5010635;28;20028;-67
2022/08/30 12:02:30;;;;;;;;;;;16.40;99.90;;;;;;5011206;28;19971;-68
2022/08/30 12:04:56;;;;;;;;;;;16.50;99.90;;;;;;5010868;28;19913;-68
2022/08/30 12:07:41;;;;;;;;;;;16.40;99.80;;;;;;5011164;28;19913;-68
2022/08/30 12:10:20;;;;;;;;;;;16.40;99.70;;;;;;5010936;28;19922;-68
2022/08/30 12:12:48;;;;;;;;;;;16.40;99.60;;;;;;5011225;28;20355;-67
2022/08/30 12:15:46;;;;;;;;;;;16.40;99.90;;;;;;5010404;28;19909;-67
2022/08/30 12:18:29;;;;;;;;;;;16.40;99.90;;;;;;5010873;28;19936;-67
2022/08/30 12:21:00;;;;;;;;;;;16.40;99.90;;;;;;5011066;28;19916;-69
2022/08/30 12:23:27;;;;;;;;;;;16.40;99.90;;;;;;5010998;28;19914;-69
2022/08/30 12:26:14;;;;;;;;;;;16.30;99.90;;;;;;5011572;28;19920;-69
2022/08/30 12:28:42;;;;;;;;;;;16.30;99.90;;;;;;5030373;27;19917;-69
2022/08/30 12:31:10;;;;;;;;;;;16.30;99.90;;;;;;5030168;28;19924;-68
2022/08/30 12:33:42;;;;;;;;;;;16.20;99.90;;;;;;5030000;28;20350;-69
2022/08/30 12:36:29;;;;;;;;;;;16.20;99.90;;;;;;5028486;28;20004;-69
2022/08/30 12:39:06;;;;;;;;;;;16.10;99.90;;;;;;5028004;28;19915;-69
2022/08/30 12:41:32;;;;;;;;;;;16.10;99.90;;;;;;5028382;28;19960;-68
2022/08/30 12:44:00;;;;;;;;;;;16.00;99.90;;;;;;5027694;28;19909;-69
2022/08/30 12:46:28;;;;;;;;;;;16.00;99.90;;;;;;5028312;28;19954;-69
2022/08/30 12:48:54;;;;;;;;;;;15.90;99.90;;;;;;5028224;28;19909;-68
2022/08/30 12:51:29;;;;;;;;;;;15.90;99.90;;;;;;5028641;28;19909;-69
2022/08/30 12:54:21;;;;;;;;;;;15.90;99.90;;;;;;5029945;28;19913;-69
2022/08/30 12:56:53;;;;;;;;;;;15.90;99.90;;;;;;5022286;28;19954;-69
2022/08/30 12:59:37;;;;;;;;;;;15.80;99.90;;;;;;5029683;28;19913;-69
2022/08/30 13:02:12;;;;;;;;;;;15.80;99.90;;;;;;5028643;28;19920;-70
2022/08/30 13:04:39;;;;;;;;;;;15.80;99.90;;;;;;5030171;28;19932;-68
2022/08/30 13:07:06;;;;;;;;;;;15.70;99.90;;;;;;5031967;28;19944;-69
2022/08/30 13:09:35;;;;;;;;;;;15.70;99.90;;;;;;5033377;28;19921;-69
2022/08/30 13:12:06;;;;;;;;;;;15.70;99.90;;;;;;5033495;28;19910;-68
2022/08/30 13:14:35;;;;;;;;;;;15.60;99.90;;;;;;5032713;28;19914;-69
2022/08/30 13:17:22;;;;;;;;;;;15.50;99.90;;;;;;5032491;28;19909;-69
2022/08/30 13:19:59;;;;;;;;;;;15.50;99.90;;;;;;5035626;28;19913;-69
2022/08/30 13:22:33;;;;;;;;;;;15.50;99.90;;;;;;5023612;28;19917;-69
2022/08/30 13:25:00;;;;;;;;;;;15.50;99.90;;;;;;5013478;28;20237;-68
2022/08/30 13:27:28;;;;;;;;;;;15.50;99.90;;;;;;5013588;28;19910;-69
2022/08/30 13:29:54;;;;;;;;;;;15.50;99.90;;;;;;5013376;28;20241;-68
2022/08/30 13:32:21;;;;;;;;;;;15.40;99.90;;;;;;5013431;28;20241;-69
2022/08/30 13:34:48;;;;;;;;;;;15.40;99.90;;;;;;5013295;28;19918;-68
2022/08/30 13:37:18;;;;;;;;;;;15.30;99.90;;;;;;5013495;28;19909;-68
2022/08/30 13:39:45;;;;;;;;;;;15.30;99.90;;;;;;5013070;28;19948;-69
2022/08/30 13:42:12;;;;;;;;;;;15.30;99.90;;;;;;5013247;28;19921;-68
2022/08/30 13:44:39;;;;;;;;;;;15.30;99.90;;;;;;5013381;28;19910;-68
2022/08/30 13:47:06;;;;;;;;;;;15.20;99.90;;;;;;5013271;28;20375;-69
2022/08/30 13:49:38;;;;;;;;;;;15.20;99.90;;;;;;5012989;28;19909;-69
2022/08/30 13:52:06;;;;;;;;;;;15.20;99.90;;;;;;5013189;28;19911;-69
2022/08/30 13:54:32;;;;;;;;;;;15.10;99.90;;;;;;5013184;28;20016;-69
2022/08/30 13:56:59;;;;;;;;;;;15.10;99.90;;;;;;5013128;28;19909;-68
2022/08/30 13:59:26;;;;;;;;;;;15.10;99.90;;;;;;5013082;28;19966;-69
2022/08/30 14:01:54;;;;;;;;;;;15.00;99.90;;;;;;5012735;28;20371;-68
2022/08/30 14:04:21;;;;;;;;;;;15.00;99.90;;;;;;5012829;28;20399;-68
2022/08/30 14:06:48;;;;;;;;;;;14.90;99.90;;;;;;5012759;28;20279;-69
2022/08/30 14:09:15;;;;;;;;;;;14.90;99.90;;;;;;5012671;28;20359;-69
2022/08/30 14:11:41;;;;;;;;;;;15.00;99.90;;;;;;5012718;28;19916;-68
2022/08/30 14:14:09;;;;;;;;;;;15.00;99.90;;;;;;5012818;28;19916;-68
2022/08/30 14:16:37;;;;;;;;;;;14.90;99.90;;;;;;5012849;28;19944;-68
2022/08/30 14:19:04;;;;;;;;;;;14.90;99.90;;;;;;5011600;28;19914;-68
2022/08/30 14:21:31;;;;;;;;;;;14.90;99.90;;;;;;5013078;28;20352;-69
2022/08/30 14:23:58;;;;;;;;;;;14.90;99.90;;;;;;5012546;28;19917;-68
2022/08/30 14:26:46;;;;;;;;;;;14.90;99.90;;;;;;5012633;28;20383;-69
2022/08/30 14:29:13;;;;;;;;;;;14.80;99.90;;;;;;5012738;28;19910;-68
2022/08/30 14:31:41;;;;;;;;;;;14.80;99.90;;;;;;5012291;28;19909;-69
2022/08/30 14:34:11;;;;;;;;;;;14.80;99.90;;;;;;5012490;28;19909;-70
2022/08/30 14:36:39;;;;;;;;;;;14.70;99.90;;;;;;5012504;28;19910;-68
2022/08/30 14:39:07;;;;;;;;;;;14.70;99.90;;;;;;5012438;28;19972;-69